Current TAF

FTBE31 TXKF 021730
     TAF TXKF 021730Z 0218/0318 10017KT 9999 SCT035 BKN050
      BECMG 0313/0317 15013KT SCT030 BKN100

SIGMET - NOAA Aviation Weather Center

En Route Weather

En-route chart with weather overlay (click to open in new window).